sensor_id;sensor_type;location;lat;lon;timestamp;pressure;altitude;pressure_sealevel;temperature;humidity
45941;BME280;31858;46.008;8.978;2024-03-23T01:02:59;94355.41;;;11.16;100.00
45941;BME280;31858;46.008;8.978;2024-03-23T01:13:01;94349.69;;;11.10;100.00
45941;BME280;31858;46.008;8.978;2024-03-23T01:23:04;94329.50;;;11.13;100.00
45941;BME280;31858;46.008;8.978;2024-03-23T01:33:05;94319.97;;;11.04;100.00
45941;BME280;31858;46.008;8.978;2024-03-23T01:43:08;94310.06;;;10.94;100.00
45941;BME280;31858;46.008;8.978;2024-03-23T01:53:10;94310.44;;;10.93;100.00
45941;BME280;31858;46.008;8.978;2024-03-23T02:03:26;94308.16;;;11.02;100.00
45941;BME280;31858;46.008;8.978;2024-03-23T02:13:28;94299.78;;;10.96;100.00
45941;BME280;31858;46.008;8.978;2024-03-23T02:23:31;94281.47;;;10.73;100.00
45941;BME280;31858;46.008;8.978;2024-03-23T02:33:32;94279.53;;;10.70;100.00
45941;BME280;31858;46.008;8.978;2024-03-23T02:53:42;94258.59;;;10.65;100.00
45941;BME280;31858;46.008;8.978;2024-03-23T03:03:43;94250.22;;;10.63;100.00
45941;BME280;31858;46.008;8.978;2024-03-23T03:13:46;94247.16;;;10.61;100.00
45941;BME280;31858;46.008;8.978;2024-03-23T03:23:48;94238.81;;;10.70;100.00
45941;BME280;31858;46.008;8.978;2024-03-23T03:33:52;94232.72;;;10.66;100.00
45941;BME280;31858;46.008;8.978;2024-03-23T03:43:53;94207.97;;;10.62;100.00
45941;BME280;31858;46.008;8.978;2024-03-23T03:53:57;94204.16;;;10.63;100.00
45941;BME280;31858;46.008;8.978;2024-03-23T04:03:58;94180.94;;;10.60;100.00
45941;BME280;31858;46.008;8.978;2024-03-23T04:14:01;94164.56;;;10.43;100.00
45941;BME280;31858;46.008;8.978;2024-03-23T04:24:03;94151.25;;;10.51;100.00
45941;BME280;31858;46.008;8.978;2024-03-23T04:34:06;94157.72;;;10.25;100.00
45941;BME280;31858;46.008;8.978;2024-03-23T04:44:08;94156.19;;;10.49;100.00
45941;BME280;31858;46.008;8.978;2024-03-23T04:54:12;94148.97;;;10.60;100.00
45941;BME280;31858;46.008;8.978;2024-03-23T05:04:13;94140.97;;;10.42;100.00
45941;BME280;31858;46.008;8.978;2024-03-23T05:14:16;94136.78;;;10.44;100.00
45941;BME280;31858;46.008;8.978;2024-03-23T05:24:18;94109.78;;;10.32;100.00
45941;BME280;31858;46.008;8.978;2024-03-23T05:34:21;94120.81;;;10.27;100.00
45941;BME280;31858;46.008;8.978;2024-03-23T05:44:22;94111.31;;;10.22;100.00
45941;BME280;31858;46.008;8.978;2024-03-23T05:54:25;94091.53;;;10.37;100.00
45941;BME280;31858;46.008;8.978;2024-03-23T06:04:27;94082.41;;;10.24;100.00
45941;BME280;31858;46.008;8.978;2024-03-23T06:14:30;94079.69;;;10.17;100.00
45941;BME280;31858;46.008;8.978;2024-03-23T06:24:31;94078.22;;;10.20;100.00
45941;BME280;31858;46.008;8.978;2024-03-23T06:34:34;94067.94;;;10.22;100.00
45941;BME280;31858;46.008;8.978;2024-03-23T06:44:36;94065.66;;;10.34;100.00
45941;BME280;31858;46.008;8.978;2024-03-23T06:54:38;94051.94;;;10.54;100.00
45941;BME280;31858;46.008;8.978;2024-03-23T07:04:40;94043.16;;;10.60;100.00
45941;BME280;31858;46.008;8.978;2024-03-23T07:14:43;94058.41;;;10.60;100.00
45941;BME280;31858;46.008;8.978;2024-03-23T07:24:45;94057.25;;;10.75;100.00
45941;BME280;31858;46.008;8.978;2024-03-23T07:34:48;94069.78;;;10.92;100.00
45941;BME280;31858;46.008;8.978;2024-03-23T07:44:50;94075.47;;;11.01;100.00
45941;BME280;31858;46.008;8.978;2024-03-23T07:54:53;94066.69;;;11.11;100.00
45941;BME280;31858;46.008;8.978;2024-03-23T08:04:54;94068.16;;;11.27;100.00
45941;BME280;31858;46.008;8.978;2024-03-23T08:14:57;94079.59;;;11.31;100.00
45941;BME280;31858;46.008;8.978;2024-03-23T08:24:59;94072.72;;;11.26;100.00
45941;BME280;31858;46.008;8.978;2024-03-23T08:35:02;94022.47;;;11.18;100.00
45941;BME280;31858;46.008;8.978;2024-03-23T08:45:04;94014.09;;;11.23;100.00
45941;BME280;31858;46.008;8.978;2024-03-23T08:55:09;94032.72;;;11.33;100.00
45941;BME280;31858;46.008;8.978;2024-03-23T09:05:11;94007.84;;;11.54;100.00
45941;BME280;31858;46.008;8.978;2024-03-23T09:15:14;93972.75;;;11.59;100.00
45941;BME280;31858;46.008;8.978;2024-03-23T09:25:15;93951.28;;;11.73;100.00
45941;BME280;31858;46.008;8.978;2024-03-23T09:35:18;93936.69;;;11.92;100.00
45941;BME280;31858;46.008;8.978;2024-03-23T09:45:21;93941.91;;;12.06;100.00
45941;BME280;31858;46.008;8.978;2024-03-23T09:55:24;93907.47;;;12.19;100.00
45941;BME280;31858;46.008;8.978;2024-03-23T10:05:26;93891.38;;;12.26;100.00
45941;BME280;31858;46.008;8.978;2024-03-23T10:15:29;93882.41;;;12.44;100.00
45941;BME280;31858;46.008;8.978;2024-03-23T10:25:31;93859.84;;;12.48;100.00
45941;BME280;31858;46.008;8.978;2024-03-23T10:35:34;93835.22;;;12.64;100.00
45941;BME280;31858;46.008;8.978;2024-03-23T10:45:36;93824.00;;;13.03;100.00
45941;BME280;31858;46.008;8.978;2024-03-23T10:55:40;93805.22;;;13.06;100.00
45941;BME280;31858;46.008;8.978;2024-03-23T11:05:46;93775.63;;;13.21;100.00
45941;BME280;31858;46.008;8.978;2024-03-23T11:15:49;93760.22;;;13.52;100.00
45941;BME280;31858;46.008;8.978;2024-03-23T11:25:50;93739.47;;;13.59;100.00
45941;BME280;31858;46.008;8.978;2024-03-23T11:35:53;93713.03;;;13.61;100.00
45941;BME280;31858;46.008;8.978;2024-03-23T11:45:55;93709.44;;;13.91;100.00
45941;BME280;31858;46.008;8.978;2024-03-23T11:55:59;93708.81;;;14.23;100.00
45941;BME280;31858;46.008;8.978;2024-03-23T12:06:03;93705.78;;;14.21;100.00
45941;BME280;31858;46.008;8.978;2024-03-23T12:16:11;93693.75;;;13.70;100.00
45941;BME280;31858;46.008;8.978;2024-03-23T12:26:13;93702.66;;;13.20;100.00
45941;BME280;31858;46.008;8.978;2024-03-23T12:36:17;93724.34;;;12.76;100.00
45941;BME280;31858;46.008;8.978;2024-03-23T12:46:19;93693.81;;;12.19;100.00
45941;BME280;31858;46.008;8.978;2024-03-23T12:56:21;93692.28;;;12.49;100.00
45941;BME280;31858;46.008;8.978;2024-03-23T13:06:23;93662.25;;;12.91;100.00
45941;BME280;31858;46.008;8.978;2024-03-23T13:16:26;93648.66;;;13.68;100.00
45941;BME280;31858;46.008;8.978;2024-03-23T13:26:27;93614.16;;;14.10;100.00
45941;BME280;31858;46.008;8.978;2024-03-23T13:36:30;93589.53;;;14.51;100.00
45941;BME280;31858;46.008;8.978;2024-03-23T13:46:32;93607.28;;;14.78;100.00
45941;BME280;31858;46.008;8.978;2024-03-23T13:56:35;93625.13;;;15.00;100.00
45941;BME280;31858;46.008;8.978;2024-03-23T14:06:37;93611.75;;;15.29;100.00
45941;BME280;31858;46.008;8.978;2024-03-23T14:16:40;93626.22;;;15.48;100.00
45941;BME280;31858;46.008;8.978;2024-03-23T14:26:42;93635.88;;;15.75;100.00
45941;BME280;31858;46.008;8.978;2024-03-23T14:36:45;93629.91;;;15.96;75.25
45941;BME280;31858;46.008;8.978;2024-03-23T14:46:46;93607.69;;;16.34;88.46
45941;BME280;31858;46.008;8.978;2024-03-23T14:56:50;93592.44;;;16.56;68.56
45941;BME280;31858;46.008;8.978;2024-03-23T15:06:51;93574.47;;;16.78;73.39
45941;BME280;31858;46.008;8.978;2024-03-23T15:16:54;93556.28;;;17.04;70.39
45941;BME280;31858;46.008;8.978;2024-03-23T15:26:56;93537.84;;;17.37;30.67
45941;BME280;31858;46.008;8.978;2024-03-23T15:36:58;93542.69;;;17.42;26.72
45941;BME280;31858;46.008;8.978;2024-03-23T15:47:00;93529.66;;;17.41;23.95
45941;BME280;31858;46.008;8.978;2024-03-23T15:57:03;93519.19;;;17.21;23.48
45941;BME280;31858;46.008;8.978;2024-03-23T16:07:05;93518.81;;;17.10;21.48
45941;BME280;31858;46.008;8.978;2024-03-23T16:17:08;93504.34;;;16.94;22.98
45941;BME280;31858;46.008;8.978;2024-03-23T16:27:09;93492.13;;;16.81;23.87
45941;BME280;31858;46.008;8.978;2024-03-23T16:37:12;93516.06;;;16.66;23.41
45941;BME280;31858;46.008;8.978;2024-03-23T16:47:14;93526.41;;;16.42;25.03
45941;BME280;31858;46.008;8.978;2024-03-23T16:57:17;93540.50;;;16.21;23.02
45941;BME280;31858;46.008;8.978;2024-03-23T17:07:18;93550.69;;;15.88;27.15
45941;BME280;31858;46.008;8.978;2024-03-23T17:17:21;93544.66;;;15.58;24.38
45941;BME280;31858;46.008;8.978;2024-03-23T17:27:23;93555.84;;;15.12;24.36
45941;BME280;31858;46.008;8.978;2024-03-23T17:37:26;93574.28;;;14.48;24.36
45941;BME280;31858;46.008;8.978;2024-03-23T17:47:27;93584.94;;;13.99;25.97
45941;BME280;31858;46.008;8.978;2024-03-23T17:57:30;93604.72;;;13.46;25.56
45941;BME280;31858;46.008;8.978;2024-03-23T18:07:32;93609.78;;;13.21;26.72
45941;BME280;31858;46.008;8.978;2024-03-23T18:17:35;93620.22;;;12.92;28.19
45941;BME280;31858;46.008;8.978;2024-03-23T18:27:37;93603.94;;;12.59;29.31
45941;BME280;31858;46.008;8.978;2024-03-23T18:37:40;93615.69;;;12.38;30.26
45941;BME280;31858;46.008;8.978;2024-03-23T18:47:41;93632.44;;;12.16;30.78
45941;BME280;31858;46.008;8.978;2024-03-23T18:57:44;93635.25;;;12.05;30.35
45941;BME280;31858;46.008;8.978;2024-03-23T19:07:46;93626.78;;;11.80;30.00
45941;BME280;31858;46.008;8.978;2024-03-23T19:17:49;93628.88;;;11.65;30.33
45941;BME280;31858;46.008;8.978;2024-03-23T19:27:50;93639.66;;;11.54;30.59
45941;BME280;31858;46.008;8.978;2024-03-23T19:37:53;93642.19;;;11.31;31.17
45941;BME280;31858;46.008;8.978;2024-03-23T19:47:55;93663.84;;;10.95;31.47
45941;BME280;31858;46.008;8.978;2024-03-23T19:57:58;93684.81;;;10.93;31.76
45941;BME280;31858;46.008;8.978;2024-03-23T20:08:00;93698.19;;;10.86;31.65
45941;BME280;31858;46.008;8.978;2024-03-23T20:18:04;93712.72;;;10.78;32.23
45941;BME280;31858;46.008;8.978;2024-03-23T20:28:06;93717.41;;;10.60;33.06
45941;BME280;31858;46.008;8.978;2024-03-23T20:38:09;93720.13;;;10.49;33.20
45941;BME280;31858;46.008;8.978;2024-03-23T20:48:10;93718.34;;;10.35;34.02
45941;BME280;31858;46.008;8.978;2024-03-23T20:58:14;93729.06;;;10.21;34.07
45941;BME280;31858;46.008;8.978;2024-03-23T21:08:16;93750.41;;;10.03;35.16
45941;BME280;31858;46.008;8.978;2024-03-23T21:18:19;93759.19;;;9.90;35.91
45941;BME280;31858;46.008;8.978;2024-03-23T21:28:20;93746.69;;;9.79;35.64
45941;BME280;31858;46.008;8.978;2024-03-23T21:38:23;93749.75;;;9.67;36.23
45941;BME280;31858;46.008;8.978;2024-03-23T21:48:26;93731.13;;;9.60;35.25
45941;BME280;31858;46.008;8.978;2024-03-23T21:58:31;93749.78;;;9.49;35.74
45941;BME280;31858;46.008;8.978;2024-03-23T22:08:32;93753.59;;;9.38;36.47
45941;BME280;31858;46.008;8.978;2024-03-23T22:18:35;93769.16;;;9.29;36.90
45941;BME280;31858;46.008;8.978;2024-03-23T22:28:37;93752.47;;;9.25;35.92
45941;BME280;31858;46.008;8.978;2024-03-23T22:38:40;93751.31;;;9.19;35.80
45941;BME280;31858;46.008;8.978;2024-03-23T22:48:42;93751.34;;;9.04;37.00
45941;BME280;31858;46.008;8.978;2024-03-23T22:58:44;93764.25;;;9.02;36.92
45941;BME280;31858;46.008;8.978;2024-03-23T23:08:46;93773.34;;;8.83;37.47
45941;BME280;31858;46.008;8.978;2024-03-23T23:18:49;93774.84;;;8.67;37.32
45941;BME280;31858;46.008;8.978;2024-03-23T23:28:51;93786.22;;;8.57;37.41
45941;BME280;31858;46.008;8.978;2024-03-23T23:38:54;93792.66;;;8.56;38.13
45941;BME280;31858;46.008;8.978;2024-03-23T23:48:55;93796.81;;;8.49;37.34
45941;BME280;31858;46.008;8.978;2024-03-23T23:58:58;93781.63;;;8.46;38.13
